sensor_id;sensor_type;location;lat;lon;timestamp;pressure;altitude;pressure_sealevel;temperature;humidity
29903;BME280;30288;50.514;9.678;2023-01-28T00:00:17;99504.41;;;1.07;100.00
29903;BME280;30288;50.514;9.678;2023-01-28T00:02:22;99504.47;;;1.10;100.00
29903;BME280;30288;50.514;9.678;2023-01-28T00:04:30;99501.13;;;1.08;100.00
29903;BME280;30288;50.514;9.678;2023-01-28T00:06:35;99497.78;;;1.06;100.00
29903;BME280;30288;50.514;9.678;2023-01-28T00:08:40;99495.41;;;1.10;100.00
29903;BME280;30288;50.514;9.678;2023-01-28T00:10:45;99497.88;;;1.10;100.00
29903;BME280;30288;50.514;9.678;2023-01-28T00:12:50;99492.16;;;1.14;100.00
29903;BME280;30288;50.514;9.678;2023-01-28T00:14:55;99497.13;;;1.14;100.00
29903;BME280;30288;50.514;9.678;2023-01-28T00:17:00;99490.53;;;1.15;100.00
29903;BME280;30288;50.514;9.678;2023-01-28T00:19:08;99492.31;;;1.20;100.00
29903;BME280;30288;50.514;9.678;2023-01-28T00:21:16;99491.56;;;1.23;100.00
29903;BME280;30288;50.514;9.678;2023-01-28T00:23:21;99488.25;;;1.24;100.00
29903;BME280;30288;50.514;9.678;2023-01-28T00:25:26;99486.31;;;1.11;100.00
29903;BME280;30288;50.514;9.678;2023-01-28T00:27:31;99491.28;;;1.11;100.00
29903;BME280;30288;50.514;9.678;2023-01-28T00:29:36;99484.56;;;1.07;100.00
29903;BME280;30288;50.514;9.678;2023-01-28T00:31:42;99484.53;;;1.04;100.00
29903;BME280;30288;50.514;9.678;2023-01-28T00:33:49;99489.41;;;1.01;100.00
29903;BME280;30288;50.514;9.678;2023-01-28T00:35:58;99495.34;;;1.07;100.00
29903;BME280;30288;50.514;9.678;2023-01-28T00:38:06;99489.63;;;1.11;100.00
29903;BME280;30288;50.514;9.678;2023-01-28T00:40:12;99488.06;;;1.15;100.00
29903;BME280;30288;50.514;9.678;2023-01-28T00:42:17;99493.84;;;1.15;100.00
29903;BME280;30288;50.514;9.678;2023-01-28T00:44:22;99491.41;;;1.17;100.00
29903;BME280;30288;50.514;9.678;2023-01-28T00:46:27;99499.72;;;1.19;100.00
29903;BME280;30288;50.514;9.678;2023-01-28T00:48:32;99506.50;;;1.26;100.00
29903;BME280;30288;50.514;9.678;2023-01-28T00:50:38;99499.72;;;1.19;100.00
29903;BME280;30288;50.514;9.678;2023-01-28T00:52:43;99501.41;;;1.20;100.00
29903;BME280;30288;50.514;9.678;2023-01-28T00:54:51;99503.88;;;1.18;100.00
29903;BME280;30288;50.514;9.678;2023-01-28T00:56:56;99501.53;;;1.26;100.00
29903;BME280;30288;50.514;9.678;2023-01-28T00:59:01;99498.13;;;1.21;100.00
29903;BME280;30288;50.514;9.678;2023-01-28T01:01:08;99498.16;;;1.22;100.00
29903;BME280;30288;50.514;9.678;2023-01-28T01:03:13;99496.41;;;1.18;100.00
29903;BME280;30288;50.514;9.678;2023-01-28T01:05:19;99506.44;;;1.23;100.00
29903;BME280;30288;50.514;9.678;2023-01-28T01:07:26;99508.09;;;1.24;100.00
29903;BME280;30288;50.514;9.678;2023-01-28T01:09:43;99510.56;;;1.22;100.00
29903;BME280;30288;50.514;9.678;2023-01-28T01:11:50;99516.28;;;1.20;100.00
29903;BME280;30288;50.514;9.678;2023-01-28T01:13:58;99514.69;;;1.22;100.00
29903;BME280;30288;50.514;9.678;2023-01-28T01:16:09;99509.63;;;1.17;100.00
29903;BME280;30288;50.514;9.678;2023-01-28T01:18:15;99514.59;;;1.19;100.00
29903;BME280;30288;50.514;9.678;2023-01-28T01:20:24;99518.91;;;1.26;100.00
29903;BME280;30288;50.514;9.678;2023-01-28T01:22:32;99516.38;;;1.24;100.00
29903;BME280;30288;50.514;9.678;2023-01-28T01:24:37;99522.97;;;1.24;100.00
29903;BME280;30288;50.514;9.678;2023-01-28T01:26:42;99519.69;;;1.25;100.00
29903;BME280;30288;50.514;9.678;2023-01-28T01:28:49;99518.84;;;1.23;100.00
29903;BME280;30288;50.514;9.678;2023-01-28T01:30:58;99515.56;;;1.25;100.00
29903;BME280;30288;50.514;9.678;2023-01-28T01:33:04;99521.25;;;1.20;100.00
29903;BME280;30288;50.514;9.678;2023-01-28T01:35:09;99520.44;;;1.21;100.00
29903;BME280;30288;50.514;9.678;2023-01-28T01:37:15;99518.03;;;1.24;100.00
29903;BME280;30288;50.514;9.678;2023-01-28T01:39:20;99523.72;;;1.20;100.00
29903;BME280;30288;50.514;9.678;2023-01-28T01:41:28;99528.78;;;1.23;100.00
29903;BME280;30288;50.514;9.678;2023-01-28T01:43:50;99528.72;;;1.21;100.00
29903;BME280;30288;50.514;9.678;2023-01-28T01:45:59;99539.44;;;1.20;100.00
29903;BME280;30288;50.514;9.678;2023-01-28T01:48:12;99532.78;;;1.18;100.00
29903;BME280;30288;50.514;9.678;2023-01-28T01:50:26;99541.88;;;1.17;100.00
29903;BME280;30288;50.514;9.678;2023-01-28T01:52:34;99543.72;;;1.26;100.00
29903;BME280;30288;50.514;9.678;2023-01-28T01:54:44;99550.34;;;1.27;100.00
29903;BME280;30288;50.514;9.678;2023-01-28T01:56:51;99548.69;;;1.26;100.00
29903;BME280;30288;50.514;9.678;2023-01-28T01:59:00;99551.09;;;1.23;100.00
29903;BME280;30288;50.514;9.678;2023-01-28T02:01:06;99544.44;;;1.22;100.00
29903;BME280;30288;50.514;9.678;2023-01-28T02:03:11;99549.41;;;1.22;100.00
29903;BME280;30288;50.514;9.678;2023-01-28T02:05:19;99539.41;;;1.19;100.00
29903;BME280;30288;50.514;9.678;2023-01-28T02:07:26;99546.09;;;1.21;100.00
29903;BME280;30288;50.514;9.678;2023-01-28T02:09:33;99549.31;;;1.17;100.00
29903;BME280;30288;50.514;9.678;2023-01-28T02:11:39;99551.00;;;1.20;100.00
29903;BME280;30288;50.514;9.678;2023-01-28T02:13:49;99548.47;;;1.17;100.00
29903;BME280;30288;50.514;9.678;2023-01-28T02:16:02;99546.00;;;1.17;100.00
29903;BME280;30288;50.514;9.678;2023-01-28T02:18:07;99550.94;;;1.17;100.00
29903;BME280;30288;50.514;9.678;2023-01-28T02:20:13;99553.44;;;1.17;100.00
29903;BME280;30288;50.514;9.678;2023-01-28T02:22:57;99546.88;;;1.20;100.00
29903;BME280;30288;50.514;9.678;2023-01-28T02:25:47;99548.56;;;1.21;100.00
29903;BME280;30288;50.514;9.678;2023-01-28T02:28:12;99556.06;;;1.23;100.00
29903;BME280;30288;50.514;9.678;2023-01-28T02:30:28;99560.81;;;1.14;100.00
29903;BME280;30288;50.514;9.678;2023-01-28T02:32:42;99562.34;;;1.09;100.00
29903;BME280;30288;50.514;9.678;2023-01-28T02:34:55;99569.13;;;1.16;100.00
29903;BME280;30288;50.514;9.678;2023-01-28T02:37:10;99565.78;;;1.14;100.00
29903;BME280;30288;50.514;9.678;2023-01-28T02:39:22;99560.81;;;1.14;100.00
29903;BME280;30288;50.514;9.678;2023-01-28T02:41:34;99565.69;;;1.11;100.00
29903;BME280;30288;50.514;9.678;2023-01-28T02:43:45;99564.00;;;1.10;100.00
29903;BME280;30288;50.514;9.678;2023-01-28T02:45:52;99568.94;;;1.08;100.00
29903;BME280;30288;50.514;9.678;2023-01-28T02:48:10;99558.94;;;1.04;100.00
29903;BME280;30288;50.514;9.678;2023-01-28T02:50:17;99568.84;;;1.04;100.00
29903;BME280;30288;50.514;9.678;2023-01-28T02:52:43;99569.75;;;1.07;100.00
29903;BME280;30288;50.514;9.678;2023-01-28T02:55:10;99575.53;;;1.08;100.00
29903;BME280;30288;50.514;9.678;2023-01-28T02:57:30;99575.59;;;1.11;100.00
29903;BME280;30288;50.514;9.678;2023-01-28T02:59:49;99578.09;;;1.11;100.00
29903;BME280;30288;50.514;9.678;2023-01-28T03:02:00;99580.56;;;1.11;100.00
29903;BME280;30288;50.514;9.678;2023-01-28T03:04:11;99568.22;;;1.12;100.00
29903;BME280;30288;50.514;9.678;2023-01-28T03:06:23;99570.59;;;1.08;100.00
29903;BME280;30288;50.514;9.678;2023-01-28T03:08:35;99577.13;;;1.06;100.00
29903;BME280;30288;50.514;9.678;2023-01-28T03:10:56;99574.84;;;1.13;100.00
29903;BME280;30288;50.514;9.678;2023-01-28T03:13:15;99572.38;;;1.15;100.00
29903;BME280;30288;50.514;9.678;2023-01-28T03:15:40;99577.50;;;1.21;100.00
29903;BME280;30288;50.514;9.678;2023-01-28T03:18:03;99582.47;;;1.21;100.00
29903;BME280;30288;50.514;9.678;2023-01-28T03:20:25;99580.66;;;1.15;100.00
29903;BME280;30288;50.514;9.678;2023-01-28T03:22:46;99573.88;;;1.07;100.00
29903;BME280;30288;50.514;9.678;2023-01-28T03:25:11;99583.72;;;1.04;100.00
29903;BME280;30288;50.514;9.678;2023-01-28T03:27:36;99586.25;;;1.07;100.00
29903;BME280;30288;50.514;9.678;2023-01-28T03:29:58;99587.03;;;1.04;100.00
29903;BME280;30288;50.514;9.678;2023-01-28T03:32:20;99596.34;;;1.13;100.00
29903;BME280;30288;50.514;9.678;2023-01-28T03:34:39;99592.03;;;1.06;100.00
29903;BME280;30288;50.514;9.678;2023-01-28T03:36:58;99593.06;;;1.14;100.00
29903;BME280;30288;50.514;9.678;2023-01-28T03:39:23;99597.19;;;1.15;100.00
29903;BME280;30288;50.514;9.678;2023-01-28T03:41:29;99593.75;;;1.10;100.00
29903;BME280;30288;50.514;9.678;2023-01-28T03:43:35;99603.63;;;1.07;100.00
29903;BME280;30288;50.514;9.678;2023-01-28T03:45:40;99598.72;;;1.10;100.00
29903;BME280;30288;50.514;9.678;2023-01-28T03:47:45;99599.56;;;1.10;100.00
29903;BME280;30288;50.514;9.678;2023-01-28T03:49:53;99599.50;;;1.07;100.00
29903;BME280;30288;50.514;9.678;2023-01-28T03:51:58;99605.25;;;1.06;100.00
29903;BME280;30288;50.514;9.678;2023-01-28T03:54:03;99596.97;;;1.06;100.00
29903;BME280;30288;50.514;9.678;2023-01-28T03:56:09;99601.88;;;1.03;100.00
29903;BME280;30288;50.514;9.678;2023-01-28T03:58:21;99597.78;;;1.05;100.00
29903;BME280;30288;50.514;9.678;2023-01-28T04:00:48;99596.91;;;1.03;100.00
29903;BME280;30288;50.514;9.678;2023-01-28T04:02:55;99606.84;;;1.03;100.00
29903;BME280;30288;50.514;9.678;2023-01-28T04:05:00;99606.91;;;1.06;100.00
29903;BME280;30288;50.514;9.678;2023-01-28T04:07:20;99601.81;;;1.00;100.00
29903;BME280;30288;50.514;9.678;2023-01-28T04:09:43;99606.78;;;1.00;100.00
29903;BME280;30288;50.514;9.678;2023-01-28T04:12:09;99598.28;;;0.92;100.00
29903;BME280;30288;50.514;9.678;2023-01-28T04:14:21;99598.22;;;0.88;100.00
29903;BME280;30288;50.514;9.678;2023-01-28T04:16:31;99604.78;;;0.86;100.00
29903;BME280;30288;50.514;9.678;2023-01-28T04:18:38;99590.34;;;1.05;100.00
29903;BME280;30288;50.514;9.678;2023-01-28T04:20:44;99606.72;;;0.98;100.00
29903;BME280;30288;50.514;9.678;2023-01-28T04:22:53;99601.56;;;0.91;100.00
29903;BME280;30288;50.514;9.678;2023-01-28T04:24:58;99607.31;;;0.88;100.00
29903;BME280;30288;50.514;9.678;2023-01-28T04:27:03;99611.59;;;0.94;100.00
29903;BME280;30288;50.514;9.678;2023-01-28T04:29:08;99595.09;;;0.96;100.00
29903;BME280;30288;50.514;9.678;2023-01-28T04:31:13;99603.31;;;0.93;100.00
29903;BME280;30288;50.514;9.678;2023-01-28T04:33:52;99596.03;;;1.01;100.00
29903;BME280;30288;50.514;9.678;2023-01-28T04:36:02;99590.22;;;0.99;100.00
29903;BME280;30288;50.514;9.678;2023-01-28T04:38:20;99590.97;;;0.96;100.00
29903;BME280;30288;50.514;9.678;2023-01-28T04:40:37;99605.84;;;0.96;100.00
29903;BME280;30288;50.514;9.678;2023-01-28T04:42:58;99601.81;;;1.00;100.00
29903;BME280;30288;50.514;9.678;2023-01-28T04:45:19;99594.19;;;0.92;100.00
29903;BME280;30288;50.514;9.678;2023-01-28T04:47:32;99599.97;;;0.93;100.00
29903;BME280;30288;50.514;9.678;2023-01-28T04:50:07;99598.38;;;0.95;100.00
29903;BME280;30288;50.514;9.678;2023-01-28T04:52:31;99596.59;;;0.91;100.00
29903;BME280;30288;50.514;9.678;2023-01-28T04:54:59;99601.66;;;0.94;100.00
29903;BME280;30288;50.514;9.678;2023-01-28T04:57:05;99598.22;;;0.88;100.00
29903;BME280;30288;50.514;9.678;2023-01-28T04:59:10;99605.72;;;0.90;100.00
29903;BME280;30288;50.514;9.678;2023-01-28T05:01:15;99601.88;;;1.03;100.00
29903;BME280;30288;50.514;9.678;2023-01-28T05:03:21;99612.47;;;0.97;100.00
29903;BME280;30288;50.514;9.678;2023-01-28T05:05:29;99614.91;;;0.96;100.00
29903;BME280;30288;50.514;9.678;2023-01-28T05:07:50;99621.34;;;0.87;100.00
29903;BME280;30288;50.514;9.678;2023-01-28T05:09:57;99618.00;;;0.85;100.00
29903;BME280;30288;50.514;9.678;2023-01-28T05:12:02;99626.28;;;0.87;100.00
29903;BME280;30288;50.514;9.678;2023-01-28T05:14:11;99621.34;;;0.87;100.00
29903;BME280;30288;50.514;9.678;2023-01-28T05:16:20;99621.34;;;0.87;100.00
29903;BME280;30288;50.514;9.678;2023-01-28T05:18:25;99620.38;;;0.82;100.00
29903;BME280;30288;50.514;9.678;2023-01-28T05:20:53;99624.47;;;0.80;100.00
29903;BME280;30288;50.514;9.678;2023-01-28T05:22:58;99618.00;;;0.85;100.00
29903;BME280;30288;50.514;9.678;2023-01-28T05:25:14;99622.78;;;0.79;100.00
29903;BME280;30288;50.514;9.678;2023-01-28T05:27:20;99629.44;;;0.80;100.00
29903;BME280;30288;50.514;9.678;2023-01-28T05:29:25;99631.88;;;0.79;100.00
29903;BME280;30288;50.514;9.678;2023-01-28T05:31:30;99636.78;;;0.77;100.00
29903;BME280;30288;50.514;9.678;2023-01-28T05:33:36;99640.16;;;0.79;100.00
29903;BME280;30288;50.514;9.678;2023-01-28T05:35:44;99632.63;;;0.76;100.00
29903;BME280;30288;50.514;9.678;2023-01-28T05:37:56;99644.19;;;0.76;100.00
29903;BME280;30288;50.514;9.678;2023-01-28T05:40:00;99638.41;;;0.77;100.00
29903;BME280;30288;50.514;9.678;2023-01-28T05:42:06;99641.72;;;0.76;100.00
29903;BME280;30288;50.514;9.678;2023-01-28T05:44:17;99644.16;;;0.74;100.00
29903;BME280;30288;50.514;9.678;2023-01-28T05:46:33;99643.34;;;0.75;100.00
29903;BME280;30288;50.514;9.678;2023-01-28T05:48:43;99646.75;;;0.79;100.00
29903;BME280;30288;50.514;9.678;2023-01-28T05:51:06;99658.19;;;0.74;100.00
29903;BME280;30288;50.514;9.678;2023-01-28T05:53:16;99659.19;;;0.80;100.00
29903;BME280;30288;50.514;9.678;2023-01-28T05:55:23;99661.56;;;0.76;100.00
29903;BME280;30288;50.514;9.678;2023-01-28T05:57:28;99660.78;;;0.78;100.00
29903;BME280;30288;50.514;9.678;2023-01-28T05:59:30;99666.53;;;0.77;100.00
29903;BME280;30288;50.514;9.678;2023-01-28T06:01:36;99663.03;;;0.69;100.00
29903;BME280;30288;50.514;9.678;2023-01-28T06:03:41;99662.13;;;0.67;100.00
29903;BME280;30288;50.514;9.678;2023-01-28T06:05:48;99659.59;;;0.64;100.00
29903;BME280;30288;50.514;9.678;2023-01-28T06:07:53;99657.16;;;0.67;100.00
29903;BME280;30288;50.514;9.678;2023-01-28T06:10:00;99658.69;;;0.62;100.00
29903;BME280;30288;50.514;9.678;2023-01-28T06:12:06;99662.06;;;0.64;100.00
29903;BME280;30288;50.514;9.678;2023-01-28T06:14:24;99662.22;;;0.70;100.00
29903;BME280;30288;50.514;9.678;2023-01-28T06:16:43;99667.19;;;0.70;100.00
29903;BME280;30288;50.514;9.678;2023-01-28T06:19:09;99671.97;;;0.64;100.00
29903;BME280;30288;50.514;9.678;2023-01-28T06:21:14;99660.47;;;0.66;100.00
29903;BME280;30288;50.514;9.678;2023-01-28T06:23:19;99673.66;;;0.65;100.00
29903;BME280;30288;50.514;9.678;2023-01-28T06:25:26;99675.25;;;0.63;100.00
29903;BME280;30288;50.514;9.678;2023-01-28T06:27:36;99675.34;;;0.66;100.00
29903;BME280;30288;50.514;9.678;2023-01-28T06:29:41;99686.78;;;0.61;100.00
29903;BME280;30288;50.514;9.678;2023-01-28T06:31:46;99690.03;;;0.60;100.00
29903;BME280;30288;50.514;9.678;2023-01-28T06:33:52;99682.66;;;0.62;100.00
29903;BME280;30288;50.514;9.678;2023-01-28T06:35:57;99680.97;;;0.61;100.00
29903;BME280;30288;50.514;9.678;2023-01-28T06:38:02;99685.94;;;0.62;100.00
29903;BME280;30288;50.514;9.678;2023-01-28T06:40:11;99682.78;;;0.66;100.00
29903;BME280;30288;50.514;9.678;2023-01-28T06:42:19;99692.66;;;0.65;100.00
29903;BME280;30288;50.514;9.678;2023-01-28T06:44:24;99691.81;;;0.64;100.00
29903;BME280;30288;50.514;9.678;2023-01-28T06:46:29;99696.75;;;0.64;100.00
29903;BME280;30288;50.514;9.678;2023-01-28T06:48:34;99688.28;;;0.56;100.00
29903;BME280;30288;50.514;9.678;2023-01-28T06:50:40;99694.22;;;0.63;100.00
29903;BME280;30288;50.514;9.678;2023-01-28T06:52:44;99703.16;;;0.56;100.00
29903;BME280;30288;50.514;9.678;2023-01-28T06:54:49;99708.13;;;0.56;100.00
29903;BME280;30288;50.514;9.678;2023-01-28T06:56:54;99699.78;;;0.54;100.00
29903;BME280;30288;50.514;9.678;2023-01-28T06:59:02;99699.59;;;0.48;100.00
29903;BME280;30288;50.514;9.678;2023-01-28T07:01:07;99702.09;;;0.48;100.00
29903;BME280;30288;50.514;9.678;2023-01-28T07:03:12;99703.03;;;0.52;100.00
29903;BME280;30288;50.514;9.678;2023-01-28T07:05:17;99714.66;;;0.54;100.00
29903;BME280;30288;50.514;9.678;2023-01-28T07:07:22;99706.34;;;0.52;100.00
29903;BME280;30288;50.514;9.678;2023-01-28T07:09:27;99698.09;;;0.53;100.00
29903;BME280;30288;50.514;9.678;2023-01-28T07:11:31;99701.47;;;0.55;100.00
29903;BME280;30288;50.514;9.678;2023-01-28T07:13:36;99706.34;;;0.52;100.00
29903;BME280;30288;50.514;9.678;2023-01-28T07:15:44;99706.25;;;0.49;100.00
29903;BME280;30288;50.514;9.678;2023-01-28T07:17:49;99704.56;;;0.48;100.00
29903;BME280;30288;50.514;9.678;2023-01-28T07:19:54;99704.50;;;0.45;100.00
29903;BME280;30288;50.514;9.678;2023-01-28T07:21:59;99709.38;;;0.43;100.00
29903;BME280;30288;50.514;9.678;2023-01-28T07:24:05;99718.56;;;0.46;100.00
29903;BME280;30288;50.514;9.678;2023-01-28T07:26:10;99714.41;;;0.45;100.00
29903;BME280;30288;50.514;9.678;2023-01-28T07:28:17;99719.34;;;0.45;100.00
29903;BME280;30288;50.514;9.678;2023-01-28T07:30:23;99712.81;;;0.47;100.00
29903;BME280;30288;50.514;9.678;2023-01-28T07:32:31;99716.34;;;0.55;100.00
29903;BME280;30288;50.514;9.678;2023-01-28T07:34:36;99719.59;;;0.54;100.00
29903;BME280;30288;50.514;9.678;2023-01-28T07:36:44;99721.84;;;0.45;100.00
29903;BME280;30288;50.514;9.678;2023-01-28T07:38:49;99724.97;;;0.39;100.00
29903;BME280;30288;50.514;9.678;2023-01-28T07:40:54;99727.50;;;0.41;100.00
29903;BME280;30288;50.514;9.678;2023-01-28T07:42:58;99729.19;;;0.42;100.00
29903;BME280;30288;50.514;9.678;2023-01-28T07:45:11;99727.75;;;0.50;100.00
29903;BME280;30288;50.514;9.678;2023-01-28T07:47:16;99734.47;;;0.54;100.00
29903;BME280;30288;50.514;9.678;2023-01-28T07:49:23;99732.78;;;0.53;100.00
29903;BME280;30288;50.514;9.678;2023-01-28T07:51:28;99733.59;;;0.52;100.00
29903;BME280;30288;50.514;9.678;2023-01-28T07:53:34;99730.94;;;0.46;100.00
29903;BME280;30288;50.514;9.678;2023-01-28T07:55:39;99735.13;;;0.47;100.00
29903;BME280;30288;50.514;9.678;2023-01-28T07:57:49;99738.56;;;0.52;100.00
29903;BME280;30288;50.514;9.678;2023-01-28T07:59:55;99745.81;;;0.46;100.00
29903;BME280;30288;50.514;9.678;2023-01-28T08:01:59;99752.34;;;0.44;100.00
29903;BME280;30288;50.514;9.678;2023-01-28T08:04:05;99752.47;;;0.47;100.00
29903;BME280;30288;50.514;9.678;2023-01-28T08:06:13;99755.09;;;0.53;100.00
29903;BME280;30288;50.514;9.678;2023-01-28T08:08:18;99756.69;;;0.51;100.00
29903;BME280;30288;50.514;9.678;2023-01-28T08:10:24;99755.81;;;0.49;100.00
29903;BME280;30288;50.514;9.678;2023-01-28T08:12:29;99758.22;;;0.46;100.00
29903;BME280;30288;50.514;9.678;2023-01-28T08:14:35;99764.88;;;0.49;100.00
29903;BME280;30288;50.514;9.678;2023-01-28T08:16:40;99759.06;;;0.48;100.00
29903;BME280;30288;50.514;9.678;2023-01-28T08:18:45;99767.41;;;0.50;100.00
29903;BME280;30288;50.514;9.678;2023-01-28T08:20:54;99769.97;;;0.53;100.00
29903;BME280;30288;50.514;9.678;2023-01-28T08:23:11;99766.63;;;0.53;100.00
29903;BME280;30288;50.514;9.678;2023-01-28T08:25:16;99770.78;;;0.52;100.00
29903;BME280;30288;50.514;9.678;2023-01-28T08:27:22;99769.16;;;0.54;100.00
29903;BME280;30288;50.514;9.678;2023-01-28T08:29:27;99768.31;;;0.54;100.00
29903;BME280;30288;50.514;9.678;2023-01-28T08:31:32;99764.28;;;0.57;100.00
29903;BME280;30288;50.514;9.678;2023-01-28T08:33:37;99770.09;;;0.58;100.00
29903;BME280;30288;50.514;9.678;2023-01-28T08:35:42;99761.03;;;0.58;100.00
29903;BME280;30288;50.514;9.678;2023-01-28T08:37:47;99765.97;;;0.58;100.00
29903;BME280;30288;50.514;9.678;2023-01-28T08:39:55;99772.44;;;0.53;100.00
29903;BME280;30288;50.514;9.678;2023-01-28T08:42:00;99767.34;;;0.47;100.00
29903;BME280;30288;50.514;9.678;2023-01-28T08:44:06;99778.03;;;0.46;100.00
29903;BME280;30288;50.514;9.678;2023-01-28T08:46:11;99776.34;;;0.45;100.00
29903;BME280;30288;50.514;9.678;2023-01-28T08:48:17;99769.25;;;0.57;100.00
29903;BME280;30288;50.514;9.678;2023-01-28T08:50:26;99764.13;;;0.51;100.00
29903;BME280;30288;50.514;9.678;2023-01-28T08:52:34;99767.59;;;0.56;100.00
29903;BME280;30288;50.514;9.678;2023-01-28T08:54:39;99771.72;;;0.57;100.00
29903;BME280;30288;50.514;9.678;2023-01-28T08:56:46;99769.44;;;0.63;100.00
29903;BME280;30288;50.514;9.678;2023-01-28T08:58:52;99775.19;;;0.62;100.00
29903;BME280;30288;50.514;9.678;2023-01-28T09:00:57;99780.97;;;0.61;100.00
29903;BME280;30288;50.514;9.678;2023-01-28T09:03:03;99775.09;;;0.59;100.00
29903;BME280;30288;50.514;9.678;2023-01-28T09:05:08;99773.66;;;0.67;100.00
29903;BME280;30288;50.514;9.678;2023-01-28T09:07:14;99772.28;;;0.75;100.00
29903;BME280;30288;50.514;9.678;2023-01-28T09:09:19;99771.50;;;0.78;100.00
29903;BME280;30288;50.514;9.678;2023-01-28T09:11:24;99757.47;;;0.78;100.00
29903;BME280;30288;50.514;9.678;2023-01-28T09:13:32;99763.31;;;0.80;100.00
29903;BME280;30288;50.514;9.678;2023-01-28T09:15:37;99768.41;;;0.86;100.00
29903;BME280;30288;50.514;9.678;2023-01-28T09:17:42;99778.03;;;0.74;100.00
29903;BME280;30288;50.514;9.678;2023-01-28T09:19:49;99779.59;;;0.72;100.00
29903;BME280;30288;50.514;9.678;2023-01-28T09:21:54;99778.72;;;0.70;100.00
29903;BME280;30288;50.514;9.678;2023-01-28T09:23:59;99783.72;;;0.72;100.00
29903;BME280;30288;50.514;9.678;2023-01-28T09:26:05;99778.88;;;0.76;100.00
29903;BME280;30288;50.514;9.678;2023-01-28T09:28:11;99784.72;;;0.78;100.00
29903;BME280;30288;50.514;9.678;2023-01-28T09:30:19;99788.13;;;0.80;100.00
29903;BME280;30288;50.514;9.678;2023-01-28T09:32:24;99779.97;;;0.84;100.00
29903;BME280;30288;50.514;9.678;2023-01-28T09:34:29;99790.13;;;0.94;100.00
29903;BME280;30288;50.514;9.678;2023-01-28T09:36:35;99791.81;;;0.95;100.00
29903;BME280;30288;50.514;9.678;2023-01-28T09:38:39;99798.44;;;0.96;100.00
29903;BME280;30288;50.514;9.678;2023-01-28T09:40:44;99789.78;;;1.11;100.00
29903;BME280;30288;50.514;9.678;2023-01-28T09:43:00;99784.56;;;1.02;100.00
29903;BME280;30288;50.514;9.678;2023-01-28T09:45:16;99793.72;;;1.05;100.00
29903;BME280;30288;50.514;9.678;2023-01-28T09:47:34;99802.13;;;1.10;100.00
29903;BME280;30288;50.514;9.678;2023-01-28T09:49:46;99811.38;;;1.15;100.00
29903;BME280;30288;50.514;9.678;2023-01-28T09:51:53;99817.84;;;1.10;100.00
29903;BME280;30288;50.514;9.678;2023-01-28T09:54:05;99811.38;;;1.15;100.00
29903;BME280;30288;50.514;9.678;2023-01-28T09:56:24;99815.28;;;1.39;100.00
29903;BME280;30288;50.514;9.678;2023-01-28T09:58:30;99817.09;;;1.13;100.00
29903;BME280;30288;50.514;9.678;2023-01-28T10:00:39;99815.41;;;1.12;100.00
29903;BME280;30288;50.514;9.678;2023-01-28T10:03:06;99823.91;;;1.20;100.00
29903;BME280;30288;50.514;9.678;2023-01-28T10:05:23;99826.25;;;1.15;100.00
29903;BME280;30288;50.514;9.678;2023-01-28T10:07:40;99824.69;;;1.19;100.00
29903;BME280;30288;50.514;9.678;2023-01-28T10:09:52;99831.19;;;1.14;100.00
29903;BME280;30288;50.514;9.678;2023-01-28T10:12:11;99831.75;;;1.04;100.00
29903;BME280;30288;50.514;9.678;2023-01-28T10:14:29;99836.78;;;1.07;100.00
29903;BME280;30288;50.514;9.678;2023-01-28T10:16:39;99837.94;;;1.19;100.00
29903;BME280;30288;50.514;9.678;2023-01-28T10:18:54;99830.63;;;1.24;100.00
29903;BME280;30288;50.514;9.678;2023-01-28T10:21:09;99829.63;;;1.17;100.00
29903;BME280;30288;50.514;9.678;2023-01-28T10:23:21;99823.69;;;1.44;100.00
29903;BME280;30288;50.514;9.678;2023-01-28T10:25:30;99822.84;;;1.43;100.00
29903;BME280;30288;50.514;9.678;2023-01-28T10:27:36;99831.25;;;1.48;100.00
29903;BME280;30288;50.514;9.678;2023-01-28T10:29:42;99836.22;;;1.48;100.00
29903;BME280;30288;50.514;9.678;2023-01-28T10:31:52;99834.97;;;1.31;100.00
29903;BME280;30288;50.514;9.678;2023-01-28T10:34:01;99834.16;;;1.32;100.00
29903;BME280;30288;50.514;9.678;2023-01-28T10:36:08;99837.97;;;1.52;100.00
29903;BME280;30288;50.514;9.678;2023-01-28T10:38:19;99837.97;;;1.52;100.00
29903;BME280;30288;50.514;9.678;2023-01-28T10:40:25;99831.47;;;1.56;100.00
29903;BME280;30288;50.514;9.678;2023-01-28T10:42:33;99825.94;;;1.66;100.00
29903;BME280;30288;50.514;9.678;2023-01-28T10:44:41;99831.50;;;1.57;100.00
29903;BME280;30288;50.514;9.678;2023-01-28T10:46:49;99829.56;;;1.46;100.00
29903;BME280;30288;50.514;9.678;2023-01-28T10:49:03;99827.13;;;1.47;100.00
29903;BME280;30288;50.514;9.678;2023-01-28T10:51:10;99826.72;;;1.32;100.00
29903;BME280;30288;50.514;9.678;2023-01-28T10:53:16;99831.94;;;1.43;100.00
29903;BME280;30288;50.514;9.678;2023-01-28T10:55:23;99827.13;;;1.47;100.00
29903;BME280;30288;50.514;9.678;2023-01-28T10:57:33;99826.22;;;1.45;100.00
29903;BME280;30288;50.514;9.678;2023-01-28T10:59:39;99826.47;;;1.54;100.00
29903;BME280;30288;50.514;9.678;2023-01-28T11:01:49;99826.06;;;1.70;100.00
29903;BME280;30288;50.514;9.678;2023-01-28T11:03:57;99831.03;;;1.70;100.00
29903;BME280;30288;50.514;9.678;2023-01-28T11:06:16;99829.50;;;1.77;100.00
29903;BME280;30288;50.514;9.678;2023-01-28T11:08:40;99823.81;;;1.80;100.00
29903;BME280;30288;50.514;9.678;2023-01-28T11:10:47;99830.47;;;1.82;100.00
29903;BME280;30288;50.514;9.678;2023-01-28T11:12:58;99835.38;;;1.81;100.00
29903;BME280;30288;50.514;9.678;2023-01-28T11:15:10;99822.41;;;1.91;100.00
29903;BME280;30288;50.514;9.678;2023-01-28T11:17:22;99822.13;;;1.79;100.00
29903;BME280;30288;50.514;9.678;2023-01-28T11:19:34;99826.84;;;1.69;100.00
29903;BME280;30288;50.514;9.678;2023-01-28T11:21:48;99837.00;;;1.79;100.00
29903;BME280;30288;50.514;9.678;2023-01-28T11:23:56;99828.78;;;1.80;100.00
29903;BME280;30288;50.514;9.678;2023-01-28T11:26:06;99832.34;;;1.91;100.00